createdAt,value
2023-02-05T00:02:09.538Z,21.20
2023-02-05T00:04:36.882Z,20.30
2023-02-05T00:07:04.524Z,20.50
2023-02-05T00:09:31.314Z,23.30
2023-02-05T00:11:58.998Z,21.80
2023-02-05T00:14:26.168Z,25.40
2023-02-05T00:16:54.232Z,19.30
2023-02-05T00:19:21.512Z,21.30
2023-02-05T00:21:49.837Z,21.00
2023-02-05T00:24:17.065Z,23.10
2023-02-05T00:26:44.700Z,21.30
2023-02-05T00:29:11.899Z,19.60
2023-02-05T00:31:39.990Z,22.80
2023-02-05T00:34:08.254Z,20.40
2023-02-05T00:36:35.049Z,16.10
2023-02-05T00:39:02.162Z,18.10
2023-02-05T00:41:29.027Z,20.30
2023-02-05T00:43:55.786Z,20.30
2023-02-05T00:46:22.669Z,20.30
2023-02-05T00:48:49.788Z,22.30
2023-02-05T00:51:16.643Z,20.80
2023-02-05T00:53:43.473Z,20.70
2023-02-05T00:56:10.615Z,25.80
2023-02-05T00:58:37.589Z,24.90
2023-02-05T01:01:04.980Z,21.60
2023-02-05T01:03:32.767Z,21.80
2023-02-05T01:05:59.855Z,19.80
2023-02-05T01:08:26.657Z,17.80
2023-02-05T01:10:54.364Z,22.30
2023-02-05T01:13:21.707Z,21.40
2023-02-05T01:15:49.563Z,17.20
2023-02-05T01:18:17.072Z,16.50
2023-02-05T01:20:44.596Z,15.80
2023-02-05T01:23:12.477Z,20.30
2023-02-05T01:25:39.325Z,17.90
2023-02-05T01:28:07.378Z,17.50
2023-02-05T01:30:34.330Z,16.50
2023-02-05T01:33:01.772Z,15.50
2023-02-05T01:35:28.958Z,17.20
2023-02-05T01:37:55.805Z,15.60
2023-02-05T01:40:23.181Z,14.30
2023-02-05T01:42:50.010Z,15.10
2023-02-05T01:45:51.832Z,13.70
2023-02-05T01:48:22.851Z,13.30
2023-02-05T01:50:52.365Z,15.50
2023-02-05T01:53:24.213Z,15.70
2023-02-05T01:55:56.590Z,16.60
2023-02-05T01:58:23.860Z,14.10
2023-02-05T02:00:50.953Z,15.20
2023-02-05T02:03:18.297Z,14.50
2023-02-05T02:05:45.033Z,18.70
2023-02-05T02:08:14.720Z,14.20
2023-02-05T02:10:44.756Z,16.30
2023-02-05T02:13:13.334Z,15.50
2023-02-05T02:15:41.363Z,16.20
2023-02-05T02:18:26.762Z,18.70
2023-02-05T02:21:06.948Z,14.50
2023-02-05T02:23:49.126Z,12.10
2023-02-05T02:26:44.435Z,15.30
2023-02-05T02:29:18.898Z,13.30
2023-02-05T02:31:52.084Z,15.90
2023-02-05T02:34:24.005Z,13.20
2023-02-05T02:36:58.166Z,15.50
2023-02-05T02:39:30.811Z,13.80
2023-02-05T02:42:03.941Z,13.10
2023-02-05T02:44:35.511Z,13.20
2023-02-05T02:47:06.985Z,11.20
2023-02-05T02:49:40.481Z,13.00
2023-02-05T02:52:11.100Z,13.40
2023-02-05T02:54:41.095Z,13.10
2023-02-05T02:57:11.385Z,12.90
2023-02-05T02:59:42.118Z,11.80
2023-02-05T03:02:12.448Z,13.60
2023-02-05T03:04:42.303Z,12.00
2023-02-05T03:07:13.663Z,10.70
2023-02-05T03:09:52.146Z,12.40
2023-02-05T03:12:20.219Z,12.70
2023-02-05T03:14:47.409Z,11.90
2023-02-05T03:17:18.708Z,10.60
2023-02-05T03:19:46.646Z,13.10
2023-02-05T03:22:13.429Z,11.20
2023-02-05T03:24:40.683Z,12.30
2023-02-05T03:27:08.063Z,13.00
2023-02-05T03:29:39.280Z,11.90
2023-02-05T03:32:23.008Z,11.80
2023-02-05T03:35:06.108Z,10.80
2023-02-05T03:37:42.510Z,10.70
2023-02-05T03:40:20.088Z,12.20
2023-02-05T03:42:54.652Z,12.00
2023-02-05T03:45:34.540Z,12.40
2023-02-05T03:48:17.853Z,13.80
2023-02-05T03:50:50.261Z,11.00
2023-02-05T03:53:24.801Z,11.40
2023-02-05T03:55:56.801Z,10.10
2023-02-05T03:58:28.660Z,12.80
2023-02-05T04:00:55.712Z,12.70
2023-02-05T04:03:23.382Z,12.90
2023-02-05T04:05:50.978Z,11.10
2023-02-05T04:08:18.837Z,12.50
2023-02-05T04:10:47.704Z,11.40
2023-02-05T04:13:14.594Z,10.30
2023-02-05T04:15:41.574Z,12.40
2023-02-05T04:18:09.424Z,12.80
2023-02-05T04:20:36.419Z,10.20
2023-02-05T04:23:03.886Z,11.10
2023-02-05T04:25:31.418Z,11.00
2023-02-05T04:28:00.912Z,10.20
2023-02-05T04:30:28.402Z,12.00
2023-02-05T04:32:55.407Z,11.40
2023-02-05T04:35:22.297Z,13.50
2023-02-05T04:37:49.588Z,10.70
2023-02-05T04:40:17.672Z,11.80
2023-02-05T04:42:45.416Z,12.50
2023-02-05T04:45:12.652Z,9.60
2023-02-05T04:47:39.805Z,10.20
2023-02-05T04:50:07.236Z,12.00
2023-02-05T04:52:34.025Z,12.30
2023-02-05T04:55:00.896Z,11.30
2023-02-05T04:57:27.889Z,13.10
2023-02-05T04:59:54.736Z,11.70
2023-02-05T05:02:23.182Z,10.90
2023-02-05T05:04:50.232Z,12.10
2023-02-05T05:07:17.036Z,10.40
2023-02-05T05:09:43.797Z,12.50
2023-02-05T05:12:10.940Z,10.10
2023-02-05T05:14:38.799Z,14.70
2023-02-05T05:17:05.847Z,10.10
2023-02-05T05:19:32.762Z,13.20
2023-02-05T05:21:59.821Z,10.80
2023-02-05T05:24:26.629Z,11.30
2023-02-05T05:26:53.436Z,13.60
2023-02-05T05:29:20.227Z,11.60
2023-02-05T05:31:47.160Z,9.80
2023-02-05T05:34:14.054Z,11.60
2023-02-05T05:36:43.701Z,9.10
2023-02-05T05:39:28.592Z,12.80
2023-02-05T05:42:13.092Z,10.10
2023-02-05T05:44:40.209Z,10.20
2023-02-05T05:47:07.222Z,13.30
2023-02-05T05:49:34.075Z,13.60
2023-02-05T05:52:01.059Z,12.10
2023-02-05T05:54:27.985Z,11.10
2023-02-05T05:56:54.714Z,12.30
2023-02-05T05:59:21.492Z,11.00
2023-02-05T06:01:48.297Z,12.20
2023-02-05T06:04:15.107Z,11.40
2023-02-05T06:06:42.647Z,17.20
2023-02-05T06:09:09.441Z,11.00
2023-02-05T06:11:36.348Z,10.00
2023-02-05T06:14:03.129Z,11.10
2023-02-05T06:16:29.946Z,12.60
2023-02-05T06:18:58.001Z,12.10
2023-02-05T06:21:25.123Z,10.60
2023-02-05T06:23:51.884Z,12.50
2023-02-05T06:26:18.772Z,11.80
2023-02-05T06:28:45.552Z,11.00
2023-02-05T06:31:12.320Z,12.10
2023-02-05T06:33:39.184Z,11.80
2023-02-05T06:36:06.921Z,12.70
2023-02-05T06:38:33.696Z,11.00
2023-02-05T06:41:00.675Z,11.30
2023-02-05T06:43:27.698Z,12.50
2023-02-05T06:45:55.698Z,12.90
2023-02-05T06:48:22.546Z,11.30
2023-02-05T06:50:49.514Z,11.60
2023-02-05T06:53:16.282Z,12.90
2023-02-05T06:55:43.252Z,13.10
2023-02-05T06:58:10.004Z,13.40
2023-02-05T07:00:37.217Z,13.10
2023-02-05T07:03:04.277Z,13.60
2023-02-05T07:05:31.536Z,12.50
2023-02-05T07:07:59.866Z,13.50
2023-02-05T07:10:26.803Z,11.70
2023-02-05T07:12:53.587Z,12.80
2023-02-05T07:15:20.784Z,11.40
2023-02-05T07:17:47.603Z,12.90
2023-02-05T07:20:16.776Z,11.80
2023-02-05T07:22:43.732Z,14.20
2023-02-05T07:25:11.137Z,10.90
2023-02-05T07:27:37.904Z,12.10
2023-02-05T07:30:05.275Z,13.60
2023-02-05T07:32:32.065Z,10.50
2023-02-05T07:34:59.188Z,13.20
2023-02-05T07:37:26.236Z,10.10
2023-02-05T07:39:53.388Z,10.90
2023-02-05T07:42:20.529Z,10.90
2023-02-05T07:44:49.942Z,10.10
2023-02-05T07:47:16.712Z,13.60
2023-02-05T07:49:43.835Z,15.00
2023-02-05T07:52:10.768Z,13.40
2023-02-05T07:54:37.546Z,12.80
2023-02-05T07:57:07.189Z,13.80
2023-02-05T07:59:33.959Z,10.50
2023-02-05T08:02:00.808Z,12.60
2023-02-05T08:04:27.874Z,11.70
2023-02-05T08:06:54.880Z,12.00
2023-02-05T08:09:21.872Z,13.30
2023-02-05T08:11:49.047Z,12.60
2023-02-05T08:14:15.965Z,12.00
2023-02-05T08:16:42.956Z,12.10
2023-02-05T08:19:14.618Z,10.80
2023-02-05T08:21:41.480Z,12.10
2023-02-05T08:24:08.729Z,12.60
2023-02-05T08:26:36.058Z,11.90
2023-02-05T08:29:03.172Z,14.80
2023-02-05T08:31:30.098Z,11.20
2023-02-05T08:34:00.093Z,11.10
2023-02-05T08:36:27.304Z,12.30
2023-02-05T08:38:54.172Z,12.60
2023-02-05T08:41:21.186Z,12.00
2023-02-05T08:43:50.002Z,11.70
2023-02-05T08:46:19.387Z,12.00
2023-02-05T08:48:46.703Z,12.40
2023-02-05T08:51:14.736Z,13.10
2023-02-05T08:53:41.734Z,11.30
2023-02-05T08:56:10.665Z,12.80
2023-02-05T08:58:37.946Z,11.50
2023-02-05T09:01:06.621Z,12.90
2023-02-05T09:03:33.897Z,11.10
2023-02-05T09:06:01.648Z,13.90
2023-02-05T09:08:31.114Z,11.50
2023-02-05T09:10:58.357Z,13.00
2023-02-05T09:13:25.244Z,13.10
2023-02-05T09:15:52.145Z,13.60
2023-02-05T09:18:19.153Z,13.00
2023-02-05T09:20:47.596Z,11.50
2023-02-05T09:23:15.912Z,13.30
2023-02-05T09:25:43.613Z,11.30
2023-02-05T09:28:12.480Z,10.80
2023-02-05T09:30:40.159Z,10.90
2023-02-05T09:33:07.299Z,11.80
2023-02-05T09:35:36.031Z,9.60
2023-02-05T09:38:03.460Z,14.20
2023-02-05T09:40:35.506Z,11.70
2023-02-05T09:43:09.669Z,11.00
2023-02-05T09:45:46.475Z,12.00
2023-02-05T09:48:31.903Z,10.90
2023-02-05T09:51:00.358Z,8.90
2023-02-05T09:53:35.132Z,11.80
2023-02-05T09:56:05.463Z,10.70
2023-02-05T09:58:37.849Z,11.70
2023-02-05T10:01:08.555Z,11.50
2023-02-05T10:03:44.401Z,10.70
2023-02-05T10:06:24.102Z,12.90
2023-02-05T10:08:59.032Z,10.80
2023-02-05T10:11:34.007Z,9.40
2023-02-05T10:14:12.246Z,13.20
2023-02-05T10:16:56.152Z,12.50
2023-02-05T10:19:41.133Z,10.40
2023-02-05T10:22:18.642Z,11.80
2023-02-05T10:25:18.123Z,11.40
2023-02-05T10:27:54.099Z,13.30
2023-02-05T10:30:29.496Z,13.30
2023-02-05T10:33:01.687Z,11.90
2023-02-05T10:35:44.446Z,10.10
2023-02-05T10:38:17.928Z,11.40
2023-02-05T10:40:46.715Z,9.80
2023-02-05T10:43:23.133Z,10.20
2023-02-05T10:45:50.884Z,16.30
2023-02-05T10:48:38.250Z,12.60
2023-02-05T10:51:08.151Z,10.30
2023-02-05T10:53:36.789Z,13.40
2023-02-05T10:56:05.844Z,13.90
2023-02-05T10:58:40.029Z,13.90
2023-02-05T11:01:08.136Z,10.00
2023-02-05T11:03:35.849Z,11.00
2023-02-05T11:06:03.363Z,10.20
2023-02-05T11:08:39.393Z,12.40
2023-02-05T11:11:07.896Z,12.90
2023-02-05T11:13:37.341Z,11.10
2023-02-05T11:16:09.186Z,17.70
2023-02-05T11:18:40.857Z,11.40
2023-02-05T11:21:10.360Z,12.90
2023-02-05T11:23:40.249Z,14.10
2023-02-05T11:26:18.292Z,12.00
2023-02-05T11:28:45.644Z,11.70
2023-02-05T11:31:28.316Z,13.30
2023-02-05T11:34:13.252Z,12.10
2023-02-05T11:36:49.696Z,11.50
2023-02-05T11:39:29.219Z,14.30
2023-02-05T11:41:58.738Z,14.20
2023-02-05T11:44:30.424Z,15.20
2023-02-05T11:47:00.600Z,16.10
2023-02-05T11:49:32.424Z,13.90
2023-02-05T11:52:01.804Z,14.20
2023-02-05T11:54:32.541Z,12.90
2023-02-05T11:57:08.660Z,12.50
2023-02-05T11:59:36.637Z,10.80
2023-02-05T12:02:32.205Z,9.10
2023-02-05T12:05:04.217Z,10.70
2023-02-05T12:07:36.351Z,11.60
2023-02-05T12:10:03.513Z,12.10
2023-02-05T12:12:36.587Z,10.50
2023-02-05T12:15:12.152Z,9.80
2023-02-05T12:17:43.894Z,12.40
2023-02-05T12:20:21.649Z,11.60
2023-02-05T12:23:28.726Z,10.70
2023-02-05T12:26:18.698Z,10.60
2023-02-05T12:28:55.491Z,9.90
2023-02-05T12:31:31.060Z,12.90
2023-02-05T12:34:18.974Z,10.30
2023-02-05T12:36:58.397Z,10.60
2023-02-05T12:39:38.438Z,13.50
2023-02-05T12:42:16.330Z,11.80
2023-02-05T12:44:57.289Z,9.20
2023-02-05T12:47:41.700Z,12.60
2023-02-05T12:50:24.254Z,10.00
2023-02-05T12:53:06.264Z,15.20
2023-02-05T12:55:49.262Z,8.90
2023-02-05T12:58:20.287Z,9.50
2023-02-05T13:00:52.967Z,9.70
2023-02-05T13:03:29.112Z,10.60
2023-02-05T13:06:01.741Z,10.00
2023-02-05T13:08:42.863Z,8.20
2023-02-05T13:11:13.781Z,8.90
2023-02-05T13:13:48.158Z,8.80
2023-02-05T13:16:18.321Z,6.70
2023-02-05T13:18:49.056Z,10.80
2023-02-05T13:21:37.037Z,7.40
2023-02-05T13:24:31.890Z,8.10
2023-02-05T13:27:28.734Z,8.20
2023-02-05T13:29:56.546Z,6.50
2023-02-05T13:32:31.204Z,6.10
2023-02-05T13:34:59.505Z,5.40
2023-02-05T13:37:52.944Z,6.30
2023-02-05T13:40:37.308Z,7.60
2023-02-05T13:43:37.042Z,6.00
2023-02-05T13:46:19.260Z,8.10
2023-02-05T13:49:16.074Z,7.40
2023-02-05T13:51:48.975Z,9.10
2023-02-05T13:54:54.745Z,7.80
2023-02-05T13:58:01.128Z,9.30
2023-02-05T14:00:29.174Z,9.50
2023-02-05T14:03:05.770Z,9.90
2023-02-05T14:08:03.305Z,9.10
2023-02-05T14:10:32.182Z,7.00
2023-02-05T14:13:13.196Z,7.10
2023-02-05T14:15:42.814Z,8.40
2023-02-05T14:18:12.882Z,9.20
2023-02-05T14:20:45.696Z,9.50
2023-02-05T14:23:38.013Z,7.90
2023-02-05T14:26:13.755Z,10.70
2023-02-05T14:28:47.710Z,8.00
2023-02-05T14:31:50.050Z,7.80
2023-02-05T14:34:48.689Z,8.30
2023-02-05T14:37:42.398Z,8.00
2023-02-05T14:40:25.232Z,9.00
2023-02-05T14:42:57.095Z,7.90
2023-02-05T14:45:30.011Z,7.50
2023-02-05T14:47:58.833Z,8.50
2023-02-05T14:50:29.541Z,9.40
2023-02-05T14:52:59.612Z,7.80
2023-02-05T14:55:32.748Z,8.60
2023-02-05T14:58:04.369Z,7.60
2023-02-05T15:00:36.353Z,7.30
2023-02-05T15:03:35.944Z,8.10
2023-02-05T15:06:09.740Z,7.30
2023-02-05T15:08:58.968Z,7.50
2023-02-05T15:11:35.400Z,7.50
2023-02-05T15:14:37.949Z,9.30
2023-02-05T15:17:42.552Z,9.70
2023-02-05T15:20:21.480Z,9.00
2023-02-05T15:22:52.328Z,8.90
2023-02-05T15:25:31.542Z,8.70
2023-02-05T15:28:02.328Z,8.40
2023-02-05T15:30:31.543Z,6.90
2023-02-05T15:33:03.434Z,8.00
2023-02-05T15:35:34.629Z,6.70
2023-02-05T15:38:11.307Z,8.80
2023-02-05T15:43:21.274Z,7.80
2023-02-05T15:45:49.171Z,7.80
2023-02-05T15:48:23.793Z,8.00
2023-02-05T15:50:54.951Z,7.80
2023-02-05T15:53:33.025Z,9.60
2023-02-05T15:56:01.260Z,8.70
2023-02-05T15:58:30.537Z,8.80
2023-02-05T16:00:58.264Z,8.20
2023-02-05T16:03:32.582Z,9.70
2023-02-05T16:05:59.602Z,10.00
2023-02-05T16:08:28.342Z,12.60
2023-02-05T16:10:58.233Z,10.40
2023-02-05T16:13:26.564Z,9.30
2023-02-05T16:15:59.763Z,10.20
2023-02-05T16:18:38.638Z,9.60
2023-02-05T16:21:09.779Z,9.10
2023-02-05T16:23:41.194Z,9.80
2023-02-05T16:26:16.380Z,10.20
2023-02-05T16:28:47.721Z,8.70
2023-02-05T16:31:20.602Z,13.20
2023-02-05T16:33:52.013Z,12.30
2023-02-05T16:36:22.809Z,8.80
2023-02-05T16:38:55.369Z,8.00
2023-02-05T16:41:26.961Z,8.80
2023-02-05T16:43:55.528Z,9.40
2023-02-05T16:46:32.461Z,9.60
2023-02-05T16:49:01.720Z,11.00
2023-02-05T16:51:49.645Z,10.90
2023-02-05T16:54:31.861Z,9.50
2023-02-05T16:57:04.398Z,11.10
2023-02-05T16:59:35.821Z,8.90
2023-02-05T17:02:03.531Z,10.60
2023-02-05T17:04:34.855Z,10.60
2023-02-05T17:07:04.559Z,10.70
2023-02-05T17:09:37.251Z,14.30
2023-02-05T17:12:36.496Z,12.40
2023-02-05T17:15:06.034Z,16.10
2023-02-05T17:17:33.558Z,12.70
2023-02-05T17:20:19.116Z,14.90
2023-02-05T17:23:12.639Z,13.90
2023-02-05T17:25:42.257Z,14.40
2023-02-05T17:28:12.521Z,16.20
2023-02-05T17:30:41.370Z,16.30
2023-02-05T17:33:11.368Z,18.50
2023-02-05T17:35:38.238Z,17.30
2023-02-05T17:38:05.053Z,18.10
2023-02-05T17:40:32.616Z,17.20
2023-02-05T17:42:59.640Z,14.90
2023-02-05T17:45:29.135Z,17.80
2023-02-05T17:47:55.917Z,18.40
2023-02-05T17:50:22.883Z,16.30
2023-02-05T17:52:50.078Z,18.80
2023-02-05T17:55:18.654Z,19.70
2023-02-05T17:57:46.511Z,18.50
2023-02-05T18:00:19.110Z,17.30
2023-02-05T18:02:46.460Z,20.00
2023-02-05T18:05:13.814Z,20.60
2023-02-05T18:07:43.482Z,18.30
2023-02-05T18:10:16.446Z,19.70
2023-02-05T18:12:43.506Z,20.40
2023-02-05T18:15:13.619Z,20.00
2023-02-05T18:17:41.879Z,18.20
2023-02-05T18:20:09.911Z,20.70
2023-02-05T18:22:36.842Z,21.20
2023-02-05T18:25:03.870Z,21.40
2023-02-05T18:27:31.514Z,21.00
2023-02-05T18:29:58.685Z,22.00
2023-02-05T18:32:25.539Z,21.60
2023-02-05T18:34:53.102Z,23.10
2023-02-05T18:37:20.230Z,38.50
2023-02-05T18:39:48.133Z,30.80
2023-02-05T18:42:15.434Z,30.40
2023-02-05T18:44:42.353Z,31.50
2023-02-05T18:47:10.997Z,27.90
2023-02-05T18:49:38.121Z,31.20
2023-02-05T18:52:06.342Z,34.70
2023-02-05T18:54:33.374Z,31.60
2023-02-05T18:57:00.406Z,32.90
2023-02-05T18:59:27.540Z,33.40
2023-02-05T19:01:54.843Z,33.00
2023-02-05T19:04:22.010Z,34.20
2023-02-05T19:06:53.577Z,31.50
2023-02-05T19:09:21.655Z,34.20
2023-02-05T19:11:48.914Z,26.70
2023-02-05T19:14:18.591Z,28.10
2023-02-05T19:16:47.335Z,34.60
2023-02-05T19:19:16.367Z,35.00
2023-02-05T19:21:44.960Z,33.40
2023-02-05T19:24:12.809Z,35.30
2023-02-05T19:26:43.525Z,41.80
2023-02-05T19:29:14.356Z,37.80
2023-02-05T19:31:41.868Z,38.00
2023-02-05T19:34:11.277Z,40.40
2023-02-05T19:36:39.233Z,39.30
2023-02-05T19:39:07.807Z,46.90
2023-02-05T19:41:36.993Z,42.10
2023-02-05T19:44:06.286Z,45.40
2023-02-05T19:46:35.697Z,44.00
2023-02-05T19:49:06.175Z,44.20
2023-02-05T19:51:33.224Z,45.20
2023-02-05T19:54:03.205Z,50.40
2023-02-05T19:56:30.646Z,51.50
2023-02-05T19:58:58.408Z,46.60
2023-02-05T20:01:26.810Z,53.60
2023-02-05T20:03:55.088Z,54.10
2023-02-05T20:06:24.350Z,49.90
2023-02-05T20:08:51.860Z,54.10
2023-02-05T20:11:19.099Z,54.40
2023-02-05T20:13:47.076Z,55.20
2023-02-05T20:16:16.580Z,55.00
2023-02-05T20:18:44.627Z,50.70
2023-02-05T20:21:14.243Z,54.80
2023-02-05T20:23:41.761Z,56.50
2023-02-05T20:26:10.528Z,58.20
2023-02-05T20:28:59.999Z,54.00
2023-02-05T20:31:34.408Z,54.10
2023-02-05T20:34:01.677Z,55.90
2023-02-05T20:36:28.732Z,61.80
2023-02-05T20:38:59.031Z,61.10
2023-02-05T20:41:26.293Z,61.20
2023-02-05T20:43:53.119Z,59.50
2023-02-05T20:46:20.459Z,65.90
2023-02-05T20:48:48.699Z,62.10
2023-02-05T20:51:19.805Z,65.80
2023-02-05T20:53:47.845Z,64.10
2023-02-05T20:56:17.298Z,62.20
2023-02-05T20:58:44.665Z,61.60
2023-02-05T21:01:13.391Z,61.50
2023-02-05T21:03:43.422Z,68.90
2023-02-05T21:06:10.947Z,63.10
2023-02-05T21:08:40.829Z,64.20
2023-02-05T21:11:08.027Z,64.20
2023-02-05T21:13:35.362Z,71.10
2023-02-05T21:16:04.798Z,65.70
2023-02-05T21:18:32.932Z,65.50
2023-02-05T21:21:08.501Z,65.70
2023-02-05T21:23:35.711Z,63.00
2023-02-05T21:26:05.874Z,70.90
2023-02-05T21:28:33.350Z,65.00
2023-02-05T21:31:08.582Z,64.60
2023-02-05T21:33:35.958Z,64.70
2023-02-05T21:36:07.809Z,62.80
2023-02-05T21:38:37.403Z,61.90
2023-02-05T21:41:08.881Z,66.40
2023-02-05T21:43:35.754Z,72.30
2023-02-05T21:46:05.010Z,72.50
2023-02-05T21:48:32.098Z,68.80
2023-02-05T21:51:00.145Z,69.50
2023-02-05T21:53:26.969Z,75.70
2023-02-05T21:55:54.513Z,68.50
2023-02-05T21:58:21.636Z,69.90
2023-02-05T22:00:48.644Z,71.90
2023-02-05T22:03:15.555Z,76.90
2023-02-05T22:05:42.416Z,77.20
2023-02-05T22:08:11.895Z,70.60
2023-02-05T22:10:38.942Z,71.90
2023-02-05T22:13:06.010Z,64.40
2023-02-05T22:15:33.242Z,65.80
2023-02-05T22:18:00.207Z,71.10
2023-02-05T22:20:27.028Z,71.60
2023-02-05T22:22:54.132Z,71.70
2023-02-05T22:25:21.416Z,72.60
2023-02-05T22:27:48.988Z,72.00
2023-02-05T22:30:16.559Z,69.90
2023-02-05T22:32:43.425Z,65.10
2023-02-05T22:35:10.801Z,67.80
2023-02-05T22:37:37.591Z,70.20
2023-02-05T22:40:04.688Z,73.20
2023-02-05T22:42:33.537Z,75.10
2023-02-05T22:45:00.668Z,76.90
2023-02-05T22:47:27.626Z,79.70
2023-02-05T22:49:54.528Z,73.70
2023-02-05T22:52:21.536Z,80.20
2023-02-05T22:54:48.290Z,73.80
2023-02-05T22:57:15.148Z,74.00
2023-02-05T22:59:42.072Z,73.20
2023-02-05T23:02:08.963Z,77.00
2023-02-05T23:04:35.513Z,75.80
2023-02-05T23:07:02.392Z,77.80
2023-02-05T23:09:29.275Z,76.80
2023-02-05T23:11:56.709Z,77.70
2023-02-05T23:14:23.905Z,86.00
2023-02-05T23:16:50.836Z,85.90
2023-02-05T23:19:22.337Z,87.60
2023-02-05T23:21:50.177Z,77.90
2023-02-05T23:24:17.699Z,87.70
2023-02-05T23:26:46.596Z,83.60
2023-02-05T23:29:15.624Z,91.50
2023-02-05T23:31:42.871Z,91.50
2023-02-05T23:34:09.933Z,91.50
2023-02-05T23:36:37.751Z,89.10
2023-02-05T23:39:06.313Z,92.40
2023-02-05T23:41:40.447Z,90.30
2023-02-05T23:44:12.904Z,90.20
2023-02-05T23:46:41.091Z,92.10
2023-02-05T23:49:09.151Z,88.20
2023-02-05T23:51:36.719Z,90.10
2023-02-05T23:54:03.757Z,83.40
2023-02-05T23:56:30.769Z,89.10
2023-02-05T23:58:57.656Z,80.00
